Clamor Schulte — ZNVG3 — position and weather

sailwx.info

Track history (hours):
 
Tides and Currents Weather Stations Pressure Air Temp Water Temp Dewpoint Dewpoint Depression Visibility Wind Speed Wind Dir Waves Ship Positions

Clamor Schulte

Last reported at 2018-Feb-22 08:02 UTC. Time now 2018-Feb-23 16:53 UTC.
Position N 36°26' E 013°56'.

Length 128 m; draft 7.7 m.

Type: Ship (hazmat cat D). MMSI: 235308000.

Date/timePositionNaut miles runAvg speedWind from/ knotsBaromVisibWave heightAir tempDewpointWater temp
2018-Feb-22 08:02N 36°26' E 013°56'014.2
2018-Feb-22 08:00N 36°26' E 013°57'714.2
2018-Feb-22 07:29N 36°25' E 014°06'714.7
2018-Feb-22 07:00N 36°26' E 014°14'814.2
2018-Feb-22 06:28N 36°26' E 014°24'714.3
2018-Feb-22 06:00N 36°26' E 014°32'28 0.6
2018-Feb-20 07:14N 36°01' E 014°46'314.7
2018-Feb-20 07:00N 35°58' E 014°43'714.3
2018-Feb-20 06:30N 35°53' E 014°38'4 3.9
2018-Feb-20 05:36N 35°50' E 014°36'0 0.1
2018-Feb-20 05:30N 35°50' E 014°36'0 0.0
2018-Feb-20 02:00N 35°50' E 014°36'0 0.0
2018-Feb-20 01:24N 35°50' E 014°36'0 0.0
2018-Feb-20 00:48N 35°50' E 014°36'0 0.0
2018-Feb-20 00:24N 35°50' E 014°36'0 0.0
2018-Feb-20 00:00N 35°50' E 014°36'0 0.0
2018-Feb-19 23:30N 35°50' E 014°36'0 0.0
2018-Feb-19 23:00N 35°50' E 014°36'0 0.0
2018-Feb-19 21:18N 35°50' E 014°36'0 0.1
2018-Feb-19 21:00N 35°50' E 014°36'0 0.1
2018-Feb-19 19:35N 35°50' E 014°36'0 1.6
2018-Feb-19 19:30N 35°49' E 014°36'5 8.9
2018-Feb-19 18:58N 35°51' E 014°41'715.3
2018-Feb-19 18:29N 35°59' E 014°42'815.2
2018-Feb-19 17:58N 36°07' E 014°42'714.4
2018-Feb-19 17:30N 36°11' E 014°35'715.0
2018-Feb-19 17:00N 36°14' E 014°27'714.9
2018-Feb-19 16:30N 36°17' E 014°18'815.4
2018-Feb-19 16:00N 36°20' E 014°10'815.3
2018-Feb-19 15:27N 36°23' E 014°00'715.6
2018-Feb-19 15:00N 36°26' E 013°52'62914.8
2018-Feb-17 20:35N 40°56' E 001°44'314.7
2018-Feb-17 20:21N 40°57' E 001°40'191 4.3
2018-Feb-15 23:32N 38°04' W 000°04'014.9
2018-Feb-15 23:30N 38°04' W 000°04'2815.0
2018-Feb-15 21:37N 37°40' W 000°24'215.3
2018-Feb-15 21:30N 37°39' W 000°25'815.2
2018-Feb-15 21:00N 37°33' W 000°31'814.9
2018-Feb-15 20:30N 37°28' W 000°38'714.6
2018-Feb-15 20:00N 37°23' W 000°45'714.2
2018-Feb-15 19:30N 37°18' W 000°52'814.4
2018-Feb-15 18:57N 37°13' W 000°59'714.3
2018-Feb-15 18:28N 37°09' W 001°06'714.1
2018-Feb-15 17:57N 37°04' W 001°12'20314.5
2018-Feb-15 03:55N 35°59' W 005°12'716.8
2018-Feb-15 03:30N 35°58' W 005°20'27412.3
2018-Feb-14 05:12N 38°29' W 010°08'614.2
2018-Feb-14 04:45N 38°35' W 010°10'514.3
2018-Feb-14 04:25N 38°40' W 010°12'613.9
2018-Feb-14 03:58N 38°46' W 010°13'713.6
2018-Feb-14 03:27N 38°53' W 010°12'613.6
2018-Feb-14 03:00N 38°59' W 010°12'713.8
2018-Feb-14 02:30N 39°06' W 010°12'713.6
2018-Feb-14 02:00N 39°13' W 010°12'  
Track history (hours):
 
Tides and Currents Weather Stations Pressure Air Temp Water Temp Dewpoint Dewpoint Depression Visibility Wind Speed Wind Dir Waves Ship Positions

Clamor Schulte

Last reported at 2018-Feb-22 08:02 UTC. Time now 2018-Feb-23 16:53 UTC.
Position N 36°26' E 013°56'.

Length 128 m; draft 7.7 m.

Type: Ship (hazmat cat D). MMSI: 235308000.

Date/timePositionNaut miles runAvg speedWind from/ knotsBaromVisibWave heightAir tempDewpointWater temp
2018-Feb-22 08:02N 36°26' E 013°56'014.2
2018-Feb-22 08:00N 36°26' E 013°57'714.2
2018-Feb-22 07:29N 36°25' E 014°06'714.7
2018-Feb-22 07:00N 36°26' E 014°14'814.2
2018-Feb-22 06:28N 36°26' E 014°24'714.3
2018-Feb-22 06:00N 36°26' E 014°32'28 0.6
2018-Feb-20 07:14N 36°01' E 014°46'314.7
2018-Feb-20 07:00N 35°58' E 014°43'714.3
2018-Feb-20 06:30N 35°53' E 014°38'4 3.9
2018-Feb-20 05:36N 35°50' E 014°36'0 0.1
2018-Feb-20 05:30N 35°50' E 014°36'0 0.0
2018-Feb-20 02:00N 35°50' E 014°36'0 0.0
2018-Feb-20 01:24N 35°50' E 014°36'0 0.0
2018-Feb-20 00:48N 35°50' E 014°36'0 0.0
2018-Feb-20 00:24N 35°50' E 014°36'0 0.0
2018-Feb-20 00:00N 35°50' E 014°36'0 0.0
2018-Feb-19 23:30N 35°50' E 014°36'0 0.0
2018-Feb-19 23:00N 35°50' E 014°36'0 0.0
2018-Feb-19 21:18N 35°50' E 014°36'0 0.1
2018-Feb-19 21:00N 35°50' E 014°36'0 0.1
2018-Feb-19 19:35N 35°50' E 014°36'0 1.6
2018-Feb-19 19:30N 35°49' E 014°36'5 8.9
2018-Feb-19 18:58N 35°51' E 014°41'715.3
2018-Feb-19 18:29N 35°59' E 014°42'815.2
2018-Feb-19 17:58N 36°07' E 014°42'714.4
2018-Feb-19 17:30N 36°11' E 014°35'715.0
2018-Feb-19 17:00N 36°14' E 014°27'714.9
2018-Feb-19 16:30N 36°17' E 014°18'815.4
2018-Feb-19 16:00N 36°20' E 014°10'815.3
2018-Feb-19 15:27N 36°23' E 014°00'715.6
2018-Feb-19 15:00N 36°26' E 013°52'62914.8
2018-Feb-17 20:35N 40°56' E 001°44'314.7
2018-Feb-17 20:21N 40°57' E 001°40'191 4.3
2018-Feb-15 23:32N 38°04' W 000°04'014.9
2018-Feb-15 23:30N 38°04' W 000°04'2815.0
2018-Feb-15 21:37N 37°40' W 000°24'215.3
2018-Feb-15 21:30N 37°39' W 000°25'815.2
2018-Feb-15 21:00N 37°33' W 000°31'814.9
2018-Feb-15 20:30N 37°28' W 000°38'714.6
2018-Feb-15 20:00N 37°23' W 000°45'714.2
2018-Feb-15 19:30N 37°18' W 000°52'814.4
2018-Feb-15 18:57N 37°13' W 000°59'714.3
2018-Feb-15 18:28N 37°09' W 001°06'714.1
2018-Feb-15 17:57N 37°04' W 001°12'20314.5
2018-Feb-15 03:55N 35°59' W 005°12'716.8
2018-Feb-15 03:30N 35°58' W 005°20'27412.3
2018-Feb-14 05:12N 38°29' W 010°08'614.2
2018-Feb-14 04:45N 38°35' W 010°10'514.3
2018-Feb-14 04:25N 38°40' W 010°12'613.9
2018-Feb-14 03:58N 38°46' W 010°13'713.6
2018-Feb-14 03:27N 38°53' W 010°12'613.6
2018-Feb-14 03:00N 38°59' W 010°12'713.8
2018-Feb-14 02:30N 39°06' W 010°12'713.6
2018-Feb-14 02:00N 39°13' W 010°12'  

Dump ship's entire track history